GBNCB EGCC-EGCB
Flight info
| Callsign | GBNCB |
|---|---|
| Flight time | 0h -41m |
| Altitude | 2000 |
| Route | THELWALL VIADUCT DEPARTURE IRLAM BRIDGE ARRIVAL |
| Aircraft | C152/L-V/N |
Departure
| Time | 2026-04-25 18:36 |
|---|---|
| Airport | Manchester Airport (EGCC) |
Arrival
| Time | 2026-04-25 17:55 |
|---|---|
| Airport | Manchester Barton Aerodrome (EGCB) |
| Time | Latitude | Longitude | Altitude | Speed | Heading |
|---|---|---|---|---|---|
| 2026-04-25 17:54 | 53.35595 | -2.28137 | 230 ft | 0 kts | 345° |
| 2026-04-25 18:28 | 53.35588 | -2.28111 | 230 ft | 10 kts | 195° |
| 2026-04-25 18:28 | 53.35513 | -2.28131 | 230 ft | 8 kts | 150° |
| 2026-04-25 18:29 | 53.35664 | -2.27823 | 233 ft | 21 kts | 52° |
| 2026-04-25 18:29 | 53.35729 | -2.27657 | 235 ft | 10 kts | 93° |
| 2026-04-25 18:30 | 53.35656 | -2.27386 | 238 ft | 16 kts | 42° |
| 2026-04-25 18:30 | 53.35726 | -2.27237 | 238 ft | 16 kts | 50° |
| 2026-04-25 18:30 | 53.35797 | -2.27096 | 240 ft | 15 kts | 47° |
| 2026-04-25 18:30 | 53.35849 | -2.26949 | 241 ft | 14 kts | 65° |
| 2026-04-25 18:31 | 53.35906 | -2.26820 | 243 ft | 14 kts | 61° |
| 2026-04-25 18:31 | 53.35910 | -2.26739 | 244 ft | 0 kts | 128° |
| 2026-04-25 18:34 | 53.35906 | -2.26729 | 244 ft | 8 kts | 126° |
| 2026-04-25 18:34 | 53.35831 | -2.26684 | 245 ft | 10 kts | 172° |
| 2026-04-25 18:34 | 53.35770 | -2.26678 | 244 ft | 6 kts | 218° |
| 2026-04-25 18:34 | 53.35766 | -2.26686 | 244 ft | 0 kts | 231° |
| 2026-04-25 18:35 | 53.35764 | -2.26690 | 244 ft | 7 kts | 228° |
| 2026-04-25 18:35 | 53.35605 | -2.27017 | 239 ft | 63 kts | 230° |
| 2026-04-25 18:35 | 53.35272 | -2.27640 | 359 ft | 75 kts | 229° |
| 2026-04-25 18:36 | 53.34922 | -2.28260 | 572 ft | 71 kts | 234° |
| 2026-04-25 18:36 | 53.34814 | -2.29014 | 759 ft | 70 kts | 278° |
| 2026-04-25 18:36 | 53.35040 | -2.29745 | 907 ft | 76 kts | 309° |
| 2026-04-25 18:36 | 53.35470 | -2.30314 | 1028 ft | 81 kts | 339° |
| 2026-04-25 18:37 | 53.36030 | -2.30502 | 1166 ft | 85 kts | 357° |
| 2026-04-25 18:37 | 53.36643 | -2.30541 | 1238 ft | 90 kts | 354° |
| 2026-04-25 18:37 | 53.37295 | -2.30594 | 1258 ft | 97 kts | 356° |
| 2026-04-25 18:37 | 53.37983 | -2.30612 | 1250 ft | 101 kts | 358° |
| 2026-04-25 18:38 | 53.38687 | -2.30601 | 1225 ft | 102 kts | 359° |
| 2026-04-25 18:38 | 53.39407 | -2.30574 | 1154 ft | 107 kts | 0° |
| 2026-04-25 18:38 | 53.40141 | -2.30541 | 1155 ft | 102 kts | 359° |
| 2026-04-25 18:38 | 53.40872 | -2.30523 | 1090 ft | 106 kts | 359° |
| 2026-04-25 18:39 | 53.41607 | -2.30484 | 1059 ft | 106 kts | 0° |
| 2026-04-25 18:39 | 53.42335 | -2.30432 | 1067 ft | 104 kts | 360° |
| 2026-04-25 18:39 | 53.43061 | -2.30382 | 1042 ft | 104 kts | 0° |
| 2026-04-25 18:39 | 53.43792 | -2.30311 | 1007 ft | 106 kts | 2° |
| 2026-04-25 18:40 | 53.44505 | -2.30415 | 1010 ft | 99 kts | 330° |
| 2026-04-25 18:40 | 53.45048 | -2.31155 | 1017 ft | 97 kts | 312° |
| 2026-04-25 18:40 | 53.45544 | -2.31939 | 1037 ft | 99 kts | 317° |
| 2026-04-25 18:40 | 53.46059 | -2.32649 | 1016 ft | 80 kts | 320° |
| 2026-04-25 18:41 | 53.46394 | -2.33093 | 917 ft | 51 kts | 317° |
| 2026-04-25 18:41 | 53.46662 | -2.33571 | 805 ft | 63 kts | 309° |
| 2026-04-25 18:41 | 53.46941 | -2.34124 | 685 ft | 56 kts | 308° |
| 2026-04-25 18:41 | 53.47151 | -2.34642 | 535 ft | 48 kts | 298° |
| 2026-04-25 18:42 | 53.47330 | -2.35065 | 517 ft | 44 kts | 309° |
| 2026-04-25 18:42 | 53.47476 | -2.35371 | 522 ft | 56 kts | 308° |
| 2026-04-25 18:42 | 53.47464 | -2.36200 | 532 ft | 65 kts | 246° |
| 2026-04-25 18:42 | 53.47310 | -2.36893 | 427 ft | 62 kts | 260° |
| 2026-04-25 18:43 | 53.47251 | -2.37586 | 342 ft | 60 kts | 264° |
| 2026-04-25 18:43 | 53.47201 | -2.38293 | 170 ft | 64 kts | 266° |
| 2026-04-25 18:43 | 53.47159 | -2.38947 | 72 ft | 44 kts | 264° |
| 2026-04-25 18:43 | 53.47121 | -2.39284 | 65 ft | 18 kts | 239° |